Time;durP1;ratioP1;P1;durP2;ratioP2;P2;SDS_P1;SDS_P2;PMS_P1;PMS_P2;Temp;Humidity;BMP_temperature;BMP_pressure;BME280_temperature;BME280_humidity;BME280_pressure;Samples;Min_cycle;Max_cycle;Signal;HPM_P1;HPM_P2
2022/03/09 00:01:22;;;;;;;22.15;12.60;;;;;;;1.48;62.79;102085.81;10419644;28;20059;-72
2022/03/09 00:06:22;;;;;;;15.15;12.00;;;;;;;1.53;64.61;102088.13;10448384;28;20451;-72
2022/03/09 00:11:23;;;;;;;23.30;12.95;;;;;;;1.64;63.63;102098.91;10459413;28;20045;-72
2022/03/09 00:16:23;;;;;;;13.25;10.15;;;;;;;1.65;62.29;102094.44;10460921;28;20040;-73
2022/03/09 00:21:24;;;;;;;20.95;13.10;;;;;;;1.54;62.14;102090.72;10458313;28;20388;-72
2022/03/09 00:26:24;;;;;;;15.35;10.27;;;;;;;1.48;61.35;102090.31;10459503;28;20037;-72
2022/03/09 00:31:24;;;;;;;15.60;10.82;;;;;;;1.43;61.32;102095.09;10462310;28;20029;-72
2022/03/09 00:36:25;;;;;;;16.55;11.40;;;;;;;1.40;61.63;102096.16;10467252;28;20041;-72
2022/03/09 00:41:25;;;;;;;17.38;12.38;;;;;;;1.44;62.42;102100.34;10458885;28;20048;-72
2022/03/09 00:46:25;;;;;;;22.60;13.55;;;;;;;1.45;63.61;102106.53;10458611;28;20033;-71
2022/03/09 00:51:26;;;;;;;23.42;13.88;;;;;;;1.40;62.86;102117.50;10457566;28;20056;-72
2022/03/09 00:56:26;;;;;;;19.05;11.50;;;;;;;1.31;63.04;102118.19;10458266;28;20091;-71
2022/03/09 01:01:27;;;;;;;16.20;11.82;;;;;;;1.25;64.74;102118.63;10458437;28;20029;-72
2022/03/09 01:06:27;;;;;;;21.15;12.50;;;;;;;1.29;64.58;102112.09;10458313;28;20052;-71
2022/03/09 01:11:27;;;;;;;20.42;14.00;;;;;;;1.17;63.00;102125.31;10457521;28;20455;-71
2022/03/09 01:16:28;;;;;;;16.83;11.50;;;;;;;1.09;64.03;102121.50;10456796;28;20031;-72
2022/03/09 01:21:29;;;;;;;13.20;11.77;;;;;;;1.05;65.22;102123.50;10457212;28;20349;-71
2022/03/09 01:26:29;;;;;;;20.25;11.35;;;;;;;1.13;65.18;102117.66;10457597;28;20041;-71
2022/03/09 01:31:30;;;;;;;14.23;10.38;;;;;;;1.15;65.18;102116.59;10456683;28;20115;-72
2022/03/09 01:36:30;;;;;;;15.15;11.93;;;;;;;1.12;65.00;102111.47;10456730;28;20049;-72
2022/03/09 01:41:30;;;;;;;20.27;11.88;;;;;;;1.11;64.79;102111.53;10456320;28;20094;-72
2022/03/09 01:46:31;;;;;;;15.48;11.50;;;;;;;1.07;65.54;102105.56;10456777;28;20564;-72
2022/03/09 01:51:32;;;;;;;19.25;12.18;;;;;;;0.97;66.19;102099.19;10456447;28;20033;-72
2022/03/09 01:56:33;;;;;;;19.17;11.55;;;;;;;0.93;66.64;102095.88;10438498;28;20051;-71
2022/03/09 02:01:34;;;;;;;17.02;11.52;;;;;;;1.04;66.49;102096.94;10438695;28;20048;-71
2022/03/09 02:06:35;;;;;;;16.45;11.32;;;;;;;1.09;65.75;102085.00;10456202;28;20045;-71
2022/03/09 02:11:36;;;;;;;13.77;10.35;;;;;;;1.07;65.08;102094.06;10439217;28;20029;-71
2022/03/09 02:16:36;;;;;;;15.05;11.30;;;;;;;1.10;65.06;102096.50;10456566;28;20380;-72
2022/03/09 02:21:37;;;;;;;14.75;10.13;;;;;;;1.08;64.54;102099.28;10455558;28;20037;-75
2022/03/09 02:26:38;;;;;;;18.27;13.18;;;;;;;1.11;64.95;102107.06;10438835;28;20029;-75
2022/03/09 02:31:38;;;;;;;14.82;11.50;;;;;;;1.11;64.27;102098.22;10457359;28;20461;-75
2022/03/09 02:36:38;;;;;;;14.05;11.38;;;;;;;1.02;66.18;102099.72;10421279;28;20099;-75
2022/03/09 02:41:39;;;;;;;20.02;10.35;;;;;;;1.10;65.06;102089.34;10457260;28;20064;-75
2022/03/09 02:46:39;;;;;;;13.48;11.00;;;;;;;1.13;64.89;102089.16;10455149;28;20048;-75
2022/03/09 02:51:39;;;;;;;16.70;10.88;;;;;;;1.11;65.47;102084.88;10456161;28;20033;-75
2022/03/09 02:56:40;;;;;;;14.20;11.75;;;;;;;1.01;65.32;102086.47;10443522;28;20030;-76
2022/03/09 03:01:40;;;;;;;17.90;10.60;;;;;;;0.99;66.01;102077.72;10446190;28;20124;-76
2022/03/09 03:06:41;;;;;;;17.67;10.85;;;;;;;1.04;65.39;102079.09;10469306;28;20443;-75
2022/03/09 03:11:41;;;;;;;18.30;10.60;;;;;;;1.14;64.99;102074.00;10445349;28;20116;-75
2022/03/09 03:16:42;;;;;;;16.83;10.65;;;;;;;1.11;64.83;102076.88;10462341;28;20056;-75
2022/03/09 03:21:42;;;;;;;14.73;11.95;;;;;;;1.04;63.76;102079.09;10447365;28;20036;-76
2022/03/09 03:26:43;;;;;;;15.43;11.40;;;;;;;1.03;64.69;102084.56;10446332;28;20047;-75
2022/03/09 03:31:43;;;;;;;14.10;10.70;;;;;;;1.08;63.92;102077.94;10461483;28;20056;-75
2022/03/09 03:36:44;;;;;;;18.00;11.52;;;;;;;1.06;62.79;102077.19;10443943;28;20080;-76
2022/03/09 03:41:44;;;;;;;15.38;11.80;;;;;;;0.99;63.80;102086.59;10444775;28;20060;-75
2022/03/09 03:46:44;;;;;;;17.70;12.35;;;;;;;1.10;63.20;102085.84;10461859;28;20540;-76
2022/03/09 03:51:45;;;;;;;11.93;10.25;;;;;;;1.12;62.60;102092.78;10443022;28;20112;-75
2022/03/09 03:56:46;;;;;;;15.45;11.07;;;;;;;1.10;62.68;102086.69;10461890;28;20029;-75
2022/03/09 04:01:47;;;;;;;16.95;11.82;;;;;;;1.06;63.08;102077.19;10460839;28;20029;-75
2022/03/09 04:06:47;;;;;;;12.20;10.55;;;;;;;1.08;63.68;102082.41;10462852;28;20044;-76
2022/03/09 04:11:47;;;;;;;18.70;10.75;;;;;;;1.23;63.04;102085.84;10442132;28;20555;-75
2022/03/09 04:16:49;;;;;;;15.50;12.65;;;;;;;1.31;62.95;102078.16;10464894;28;20037;-76
2022/03/09 04:21:49;;;;;;;16.58;12.15;;;;;;;1.30;63.03;102071.09;10465066;28;20040;-75
2022/03/09 04:26:49;;;;;;;14.77;9.35;;;;;;;1.37;62.57;102078.56;10442703;28;20041;-75
2022/03/09 04:31:50;;;;;;;13.52;10.88;;;;;;;1.52;62.11;102076.59;10441977;28;20045;-75
2022/03/09 04:36:50;;;;;;;16.30;10.13;;;;;;;1.76;60.96;102073.16;10461114;28;20044;-76
2022/03/09 04:41:51;;;;;;;19.92;10.65;;;;;;;1.90;60.30;102086.34;10458178;28;20098;-76
2022/03/09 04:46:51;;;;;;;13.73;10.93;;;;;;;2.05;59.55;102069.19;10441915;28;20044;-76
2022/03/09 04:51:51;;;;;;;14.68;10.48;;;;;;;2.13;58.30;102073.09;10459196;28;20499;-76
2022/03/09 04:56:52;;;;;;;17.75;11.02;;;;;;;2.24;58.22;102084.72;10458788;28;20036;-76
2022/03/09 05:01:52;;;;;;;24.65;10.80;;;;;;;2.26;58.42;102085.44;10459333;28;20036;-76
2022/03/09 05:06:53;;;;;;;16.73;11.13;;;;;;;2.18;58.46;102085.16;10440688;28;20057;-75
2022/03/09 05:11:53;;;;;;;11.32;9.90;;;;;;;2.19;58.16;102091.38;10458723;28;20040;-75
2022/03/09 05:16:53;;;;;;;18.33;11.63;;;;;;;2.17;57.86;102088.81;10457201;28;20084;-75
2022/03/09 05:21:54;;;;;;;18.05;11.18;;;;;;;2.10;58.03;102087.53;10440068;28;20116;-76
2022/03/09 05:26:55;;;;;;;14.05;10.82;;;;;;;1.97;58.71;102092.94;10457703;28;20055;-74
2022/03/09 05:31:55;;;;;;;12.80;9.63;;;;;;;1.96;58.88;102096.59;10443988;28;20138;-77
2022/03/09 05:36:55;;;;;;;13.30;10.88;;;;;;;1.93;59.02;102103.97;10461122;28;20041;-75
2022/03/09 05:41:56;;;;;;;16.95;10.13;;;;;;;1.92;58.62;102110.28;10438733;28;20392;-78
2022/03/09 05:46:57;;;;;;;20.38;11.98;;;;;;;1.97;58.63;102108.13;10458171;28;20124;-76
2022/03/09 05:51:57;;;;;;;15.10;11.43;;;;;;;1.98;58.48;102105.34;10456792;28;20091;-75
2022/03/09 05:56:58;;;;;;;13.73;10.38;;;;;;;1.95;59.04;102105.56;10438911;28;20473;-75
2022/03/09 06:01:58;;;;;;;21.15;12.68;;;;;;;2.04;58.63;102110.25;10457585;28;20083;-75
2022/03/09 06:07:01;;;;;;;15.07;11.23;;;;;;;2.05;59.05;102109.28;10439172;28;20464;-76
2022/03/09 06:12:01;;;;;;;19.10;12.20;;;;;;;1.98;58.92;102105.34;10439926;28;20040;-74
2022/03/09 06:17:02;;;;;;;15.93;10.60;;;;;;;1.82;59.26;102110.09;10423476;28;20037;-75
2022/03/09 06:22:02;;;;;;;20.23;12.13;;;;;;;1.79;60.00;102116.50;10455641;28;20029;-75
2022/03/09 06:27:03;;;;;;;23.55;11.40;;;;;;;1.91;59.53;102114.75;10456187;28;20033;-75
2022/03/09 06:32:04;;;;;;;16.10;12.05;;;;;;;2.13;59.05;102116.72;10445201;28;20052;-75
2022/03/09 06:37:05;;;;;;;14.85;10.27;;;;;;;2.35;58.51;102115.97;10447621;28;20445;-75
2022/03/09 06:42:05;;;;;;;17.92;11.90;;;;;;;2.71;58.38;102128.44;10463572;28;20025;-76
2022/03/09 06:47:06;;;;;;;14.82;11.38;;;;;;;3.21;57.53;102106.75;10464304;28;20029;-76
2022/03/09 06:52:06;;;;;;;18.10;12.82;;;;;;;3.91;56.20;102111.00;10462950;28;20039;-76
2022/03/09 06:57:07;;;;;;;20.90;12.10;;;;;;;4.59;54.93;102109.81;10445451;28;20028;-76
2022/03/09 07:02:07;;;;;;;20.95;12.00;;;;;;;5.16;53.43;102115.72;10461724;28;20127;-76
2022/03/09 07:07:08;;;;;;;14.30;9.93;;;;;;;5.71;52.34;102121.66;10446007;28;20136;-76
2022/03/09 07:12:09;;;;;;;16.95;11.90;;;;;;;6.39;50.75;102119.16;10444646;28;20033;-77
2022/03/09 07:17:09;;;;;;;16.73;11.35;;;;;;;6.72;48.72;102123.28;10462104;28;20381;-77
2022/03/09 07:22:10;;;;;;;19.55;11.82;;;;;;;7.12;47.87;102122.25;10462091;28;20041;-77
2022/03/09 07:27:10;;;;;;;13.82;10.77;;;;;;;7.23;46.84;102127.44;10462838;28;20038;-77
2022/03/09 07:32:14;;;;;;;19.65;11.85;;;;;;;7.40;46.25;102138.47;10460268;28;20056;-76
2022/03/09 07:37:14;;;;;;;18.58;13.13;;;;;;;7.68;46.47;102145.59;10462226;28;20116;-77
2022/03/09 07:42:15;;;;;;;18.23;12.48;;;;;;;8.11;47.65;102135.19;10459896;28;20119;-78
2022/03/09 07:47:15;;;;;;;24.38;11.40;;;;;;;8.56;43.59;102137.91;10459897;28;20037;-78
2022/03/09 07:52:16;;;;;;;17.92;10.82;;;;;;;8.74;42.98;102147.84;10460600;28;20135;-78
2022/03/09 07:57:16;;;;;;;21.08;11.82;;;;;;;9.04;42.91;102142.03;10462698;28;20106;-77
2022/03/09 08:02:17;;;;;;;15.68;11.15;;;;;;;9.38;42.25;102137.69;10443201;28;20045;-77
2022/03/09 08:07:17;;;;;;;17.25;11.55;;;;;;;9.38;41.14;102132.28;10459461;28;20057;-79
2022/03/09 08:12:18;;;;;;;13.93;11.95;;;;;;;9.67;40.31;102137.38;10443746;28;20060;-78
2022/03/09 08:17:19;;;;;;;15.02;12.13;;;;;;;9.72;39.19;102138.56;10458688;28;20033;-78
2022/03/09 08:22:20;;;;;;;12.85;9.93;;;;;;;9.94;38.99;102128.19;10460773;28;20044;-78
2022/03/09 08:27:20;;;;;;;15.18;11.63;;;;;;;10.35;38.35;102131.88;10443334;28;20493;-77
2022/03/09 08:32:21;;;;;;;15.15;11.90;;;;;;;10.85;38.45;102139.06;10458806;28;20103;-78
2022/03/09 08:37:21;;;;;;;18.52;11.70;;;;;;;10.88;36.40;102144.16;10425520;28;20029;-79
2022/03/09 08:42:22;;;;;;;22.88;11.95;;;;;;;11.01;36.79;102131.94;10460725;28;20571;-78
2022/03/09 08:47:22;;;;;;;15.85;11.27;;;;;;;11.44;38.19;102138.00;10441691;28;20116;-79
2022/03/09 08:52:23;;;;;;;21.35;12.30;;;;;;;11.56;36.01;102132.03;10459613;28;20032;-79
2022/03/09 08:57:23;;;;;;;18.42;13.23;;;;;;;11.59;36.15;102137.09;10457397;28;20041;-79
2022/03/09 09:02:24;;;;;;;21.15;12.75;;;;;;;11.85;35.51;102147.72;10440479;28;20045;-80
2022/03/09 09:07:24;;;;;;;19.20;14.10;;;;;;;12.01;35.01;102137.84;10462174;28;20178;-79
2022/03/09 09:12:25;;;;;;;20.63;12.15;;;;;;;12.31;35.18;102139.69;10462128;28;20044;-78
2022/03/09 09:17:25;;;;;;;17.08;12.95;;;;;;;12.59;33.86;102144.63;10459098;28;20072;-78
2022/03/09 09:22:25;;;;;;;15.43;11.93;;;;;;;13.00;34.08;102153.31;10457729;28;20111;-79
2022/03/09 09:27:26;;;;;;;21.65;12.57;;;;;;;13.35;33.97;102144.72;10456791;28;20033;-79
2022/03/09 09:32:26;;;;;;;22.13;16.15;;;;;;;13.45;33.93;102137.13;10438430;28;20040;-79
2022/03/09 09:37:27;;;;;;;25.45;13.25;;;;;;;13.85;32.84;102143.16;10457080;28;20117;-79
2022/03/09 09:42:31;;;;;;;19.70;14.30;;;;;;;14.12;32.51;102128.81;10456208;28;20037;-80
2022/03/09 09:47:32;;;;;;;21.05;14.43;;;;;;;13.97;31.80;102141.59;10456743;28;20044;-79
2022/03/09 09:52:33;;;;;;;20.75;14.40;;;;;;;14.15;31.43;102143.94;10438716;28;20488;-79
2022/03/09 09:57:33;;;;;;;23.40;16.88;;;;;;;13.83;32.20;102147.91;10438794;28;20029;-79
2022/03/09 10:02:36;;;;;;;27.13;14.30;;;;;;;13.98;32.24;102143.31;10455941;28;20040;-79
2022/03/09 10:08:02;;;;;;;24.65;15.10;;;;;;;14.40;32.38;102149.91;10472311;28;20111;-79
2022/03/09 10:13:09;;;;;;;24.58;16.92;;;;;;;14.65;31.48;102153.13;10452061;28;20432;-79
2022/03/09 10:18:17;;;;;;;21.98;14.60;;;;;;;15.00;33.06;102153.28;10470781;28;20033;-79
2022/03/09 10:23:18;;;;;;;27.25;14.10;;;;;;;15.47;31.32;102152.56;10455181;28;20112;-80
2022/03/09 10:28:19;;;;;;;23.58;15.95;;;;;;;15.75;30.52;102149.00;10469844;28;20373;-79
2022/03/09 10:33:19;;;;;;;20.73;16.23;;;;;;;15.24;30.90;102141.91;10470563;28;20045;-79
2022/03/09 10:38:25;;;;;;;24.48;16.50;;;;;;;15.34;31.41;102149.75;10468634;28;20033;-80
2022/03/09 10:43:29;;;;;;;26.95;15.05;;;;;;;15.97;32.74;102142.41;10469697;28;20033;-80
2022/03/09 10:48:56;;;;;;;23.02;15.90;;;;;;;16.43;30.38;102149.94;10470363;28;20048;-80
2022/03/09 10:53:58;;;;;;;25.83;16.13;;;;;;;16.45;30.30;102150.56;10469717;28;20082;-79
2022/03/09 10:59:20;;;;;;;30.05;18.02;;;;;;;16.61;31.60;102143.03;10467559;28;20036;-80
2022/03/09 11:04:20;;;;;;;20.33;16.65;;;;;;;16.97;31.51;102139.94;10436686;28;20056;-80
2022/03/09 11:09:21;;;;;;;26.67;17.27;;;;;;;16.95;29.99;102137.44;10452165;28;20048;-80
2022/03/09 11:14:25;;;;;;;19.60;16.15;;;;;;;17.11;30.45;102127.13;10467505;28;20048;-80
2022/03/09 11:19:26;;;;;;;26.95;16.05;;;;;;;16.69;30.60;102131.91;10462012;28;20115;-80
2022/03/09 11:24:26;;;;;;;23.48;15.48;;;;;;;16.70;30.75;102133.59;10462014;28;20025;-79
2022/03/09 11:29:29;;;;;;;21.92;15.30;;;;;;;16.81;30.46;102132.97;10461833;28;20456;-80
2022/03/09 11:34:45;;;;;;;34.00;17.95;;;;;;;17.32;29.58;102124.13;10462995;28;20032;-81
2022/03/09 11:39:47;;;;;;;31.02;17.23;;;;;;;17.14;30.05;102113.03;10464533;28;20036;-80
2022/03/09 11:44:48;;;;;;;39.05;17.88;;;;;;;16.80;30.11;102109.41;10427374;28;20472;-80
2022/03/09 11:49:53;;;;;;;27.17;16.20;;;;;;;16.91;30.80;102107.94;10443337;28;20051;-80
2022/03/09 11:55:00;;;;;;;27.58;18.05;;;;;;;16.97;29.81;102104.38;10461852;28;20090;-80
2022/03/09 12:00:13;;;;;;;32.77;17.23;;;;;;;16.94;29.63;102093.84;10460804;28;20384;-80
2022/03/09 12:05:39;;;;;;;39.83;19.90;;;;;;;17.28;29.80;102095.50;10442703;28;20285;-81
2022/03/09 12:10:51;;;;;;;39.58;18.55;;;;;;;17.46;29.42;102099.50;10462172;28;20457;-80
2022/03/09 12:16:04;;;;;;;28.48;18.00;;;;;;;17.38;29.41;102084.94;10461053;28;20040;-81
2022/03/09 12:21:08;;;;;;;29.67;18.42;;;;;;;17.48;29.41;102079.03;10437540;28;20167;-81
2022/03/09 12:26:09;;;;;;;24.13;17.23;;;;;;;17.78;29.05;102073.94;10445518;28;20036;-81
2022/03/09 12:31:09;;;;;;;38.85;19.10;;;;;;;17.48;29.49;102073.56;10443227;28;20037;-79
2022/03/09 12:36:14;;;;;;;28.70;17.30;;;;;;;17.62;29.03;102085.34;10459122;28;20064;-81
2022/03/09 12:41:31;;;;;;;30.65;20.45;;;;;;;17.74;28.37;102066.31;10458923;28;20029;-80
2022/03/09 12:46:32;;;;;;;36.22;17.63;;;;;;;17.73;28.66;102067.38;10427890;28;20099;-81
2022/03/09 12:51:33;;;;;;;36.20;18.30;;;;;;;17.65;28.36;102082.16;10444529;28;20527;-80
2022/03/09 12:56:33;;;;;;;28.00;18.33;;;;;;;18.20;29.85;102081.75;10442925;28;20131;-82
2022/03/09 13:01:34;;;;;;;35.53;17.92;;;;;;;18.17;28.68;102071.22;10459307;28;20029;-79
2022/03/09 13:06:36;;;;;;;22.85;18.77;;;;;;;18.23;28.66;102062.09;10459350;28;20232;-81
2022/03/09 13:11:36;;;;;;;31.73;19.90;;;;;;;18.09;28.72;102077.78;10457247;28;20025;-81
2022/03/09 13:16:37;;;;;;;27.63;18.08;;;;;;;17.59;28.20;102061.94;10460127;28;20037;-81
2022/03/09 13:21:38;;;;;;;26.30;16.55;;;;;;;17.50;27.74;102056.94;10439765;28;20029;-81
2022/03/09 13:26:42;;;;;;;38.85;21.42;;;;;;;17.28;28.31;102057.19;10457669;28;20090;-81
2022/03/09 13:32:00;;;;;;;29.33;18.38;;;;;;;17.22;28.96;102051.72;10459058;28;20053;-81
2022/03/09 13:37:07;;;;;;;22.13;16.67;;;;;;;17.42;29.85;102049.75;10459123;28;20388;-82
2022/03/09 13:42:21;;;;;;;28.77;18.45;;;;;;;17.31;28.99;102053.19;10445843;28;20032;-81
2022/03/09 13:47:22;;;;;;;33.42;19.73;;;;;;;17.37;29.10;102044.94;10468673;28;20033;-81
2022/03/09 13:52:27;;;;;;;44.75;19.40;;;;;;;17.53;29.82;102042.81;10456900;28;20029;-81
2022/03/09 13:57:35;;;;;;;34.92;20.25;;;;;;;17.36;29.98;102036.97;10455690;28;20071;-82
2022/03/09 14:02:36;;;;;;;29.33;20.42;;;;;;;17.31;29.88;102026.63;10440916;28;20036;-83
2022/03/09 14:07:37;;;;;;;22.88;18.42;;;;;;;17.49;30.36;102031.44;10440045;28;20024;-81
2022/03/09 14:12:45;;;;;;;22.75;16.80;;;;;;;17.53;28.12;102032.69;10438131;28;20036;-81
2022/03/09 14:17:45;;;;;;;29.70;17.25;;;;;;;16.96;29.40;102035.13;10455041;28;20025;-81
2022/03/09 14:22:47;;;;;;;34.83;17.80;;;;;;;16.85;29.81;102024.84;10459199;28;20044;-82
2022/03/09 14:27:47;;;;;;;49.42;18.08;;;;;;;16.92;29.44;102035.78;10443420;28;20028;-82
2022/03/09 14:32:48;;;;;;;26.92;17.80;;;;;;;16.69;30.46;102030.72;10439944;28;20127;-81
2022/03/09 14:37:54;;;;;;;30.58;17.80;;;;;;;16.78;31.11;102034.09;10441971;28;20376;-81
2022/03/09 14:42:55;;;;;;;29.15;18.95;;;;;;;16.78;30.31;102026.72;10440756;28;20063;-82
2022/03/09 14:47:59;;;;;;;26.23;16.63;;;;;;;16.76;30.51;102037.03;10455546;28;20492;-81
2022/03/09 14:52:59;;;;;;;28.63;16.33;;;;;;;16.79;31.93;102033.88;10462072;28;20358;-81
2022/03/09 14:58:00;;;;;;;31.00;16.13;;;;;;;16.93;31.75;102035.53;10428966;28;20029;-82
2022/03/09 15:03:01;;;;;;;30.00;17.65;;;;;;;16.71;30.25;102026.69;10462074;28;20077;-82
2022/03/09 15:08:01;;;;;;;28.33;16.88;;;;;;;16.37;31.25;102026.88;10428877;28;20449;-81
2022/03/09 15:13:05;;;;;;;25.42;18.10;;;;;;;16.20;32.33;102029.16;10464606;28;20037;-81
2022/03/09 15:18:05;;;;;;;21.80;15.52;;;;;;;16.09;32.53;102022.44;10470424;28;20044;-81
2022/03/09 15:23:06;;;;;;;24.23;16.63;;;;;;;15.91;34.01;102030.38;10465063;28;20041;-82
2022/03/09 15:28:06;;;;;;;30.48;18.85;;;;;;;15.40;33.15;102028.84;10444433;28;20091;-81
2022/03/09 15:33:07;;;;;;;44.15;17.13;;;;;;;15.00;33.33;102044.16;10443637;28;20188;-81
2022/03/09 15:38:07;;;;;;;41.50;20.73;;;;;;;14.56;32.87;102037.09;10462813;28;20068;-81
2022/03/09 15:43:08;;;;;;;35.75;16.95;;;;;;;14.43;34.25;102046.78;10461354;28;20037;-80
2022/03/09 15:48:11;;;;;;;33.88;16.92;;;;;;;14.45;34.66;102035.69;10444646;28;20033;-82
2022/03/09 15:53:12;;;;;;;34.95;17.88;;;;;;;14.34;34.90;102052.56;10445529;28;20448;-81
2022/03/09 15:58:12;;;;;;;32.78;18.88;;;;;;;14.22;34.96;102038.59;10444259;28;20075;-80
2022/03/09 16:03:12;;;;;;;30.15;17.13;;;;;;;14.13;35.30;102046.03;10442640;28;20053;-81
2022/03/09 16:08:13;;;;;;;36.17;16.30;;;;;;;13.99;35.58;102043.38;10443112;28;20079;-81
2022/03/09 16:13:13;;;;;;;24.80;16.55;;;;;;;13.89;35.66;102040.97;10460206;28;20045;-80
2022/03/09 16:18:14;;;;;;;33.10;16.95;;;;;;;13.84;35.63;102027.06;10442847;28;20025;-81
2022/03/09 16:23:14;;;;;;;35.08;19.75;;;;;;;13.80;35.81;102031.22;10442799;28;20040;-80
2022/03/09 16:28:15;;;;;;;31.77;17.52;;;;;;;13.71;36.25;102036.78;10461860;28;20033;-80
2022/03/09 16:33:15;;;;;;;26.35;16.05;;;;;;;13.63;36.40;102042.34;10418978;28;20544;-80
2022/03/09 16:38:18;;;;;;;35.75;17.77;;;;;;;13.55;36.93;102038.88;10443028;28;20476;-81
2022/03/09 16:43:21;;;;;;;37.20;20.20;;;;;;;13.45;36.96;102045.44;10461146;28;20048;-81
2022/03/09 16:48:21;;;;;;;39.03;20.98;;;;;;;13.34;37.38;102045.94;10443766;28;20191;-80
2022/03/09 16:53:22;;;;;;;34.00;18.55;;;;;;;13.24;38.08;102054.38;10445754;28;20080;-81
2022/03/09 16:58:22;;;;;;;40.60;19.85;;;;;;;13.04;38.16;102045.00;10446607;28;20468;-81
2022/03/09 17:03:22;;;;;;;38.35;19.92;;;;;;;12.94;38.53;102048.00;10451257;28;20387;-80
2022/03/09 17:08:23;;;;;;;33.33;20.17;;;;;;;12.76;39.36;102047.50;10418152;28;20053;-80
2022/03/09 17:13:23;;;;;;;31.55;18.00;;;;;;;12.58;39.65;102056.00;10417371;28;20072;-80
2022/03/09 17:18:24;;;;;;;36.88;19.33;;;;;;;12.39;40.02;102059.19;10400160;28;20037;-80
2022/03/09 17:23:24;;;;;;;35.28;20.40;;;;;;;12.24;40.29;102050.97;10417162;28;20037;-80
2022/03/09 17:28:25;;;;;;;35.13;18.23;;;;;;;12.08;39.95;102068.22;10416795;28;20036;-79
2022/03/09 17:33:25;;;;;;;42.40;21.45;;;;;;;11.93;40.25;102067.28;10417393;28;20358;-79
2022/03/09 17:38:25;;;;;;;30.15;19.60;;;;;;;11.67;41.35;102067.53;10398772;28;20455;-80
2022/03/09 17:43:26;;;;;;;34.22;20.40;;;;;;;11.52;41.24;102084.56;10416897;28;20034;-81
2022/03/09 17:48:26;;;;;;;35.47;18.38;;;;;;;11.33;41.35;102093.94;10403387;28;20052;-80
2022/03/09 17:53:27;;;;;;;37.17;20.52;;;;;;;11.20;41.11;102104.50;10398424;28;20128;-80
2022/03/09 17:58:27;;;;;;;29.83;16.60;;;;;;;11.00;41.44;102113.97;10397810;28;20473;-80
2022/03/09 18:03:27;;;;;;;32.40;17.42;;;;;;;10.87;41.88;102119.91;10415523;28;20057;-79
2022/03/09 18:08:28;;;;;;;35.60;18.80;;;;;;;10.76;41.93;102125.69;10400308;28;20042;-80
2022/03/09 18:13:28;;;;;;;31.30;17.77;;;;;;;10.58;41.90;102128.53;10415204;28;20060;-80
2022/03/09 18:18:29;;;;;;;38.05;17.45;;;;;;;10.37;42.88;102129.88;10398249;28;20029;-80
2022/03/09 18:23:29;;;;;;;42.97;19.50;;;;;;;10.26;43.34;102127.47;10415557;28;20041;-80
2022/03/09 18:28:30;;;;;;;32.20;18.80;;;;;;;10.12;44.10;102130.78;10405579;28;20087;-80
2022/03/09 18:33:31;;;;;;;44.63;19.70;;;;;;;10.00;43.67;102132.94;10426115;28;20044;-80
2022/03/09 18:38:31;;;;;;;35.35;19.52;;;;;;;9.86;44.32;102131.72;10436898;28;20567;-80
2022/03/09 18:43:32;;;;;;;37.83;20.38;;;;;;;9.74;44.09;102139.25;10418510;28;20532;-80
2022/03/09 18:48:32;;;;;;;38.15;21.02;;;;;;;9.65;45.02;102150.19;10426624;28;20029;-79
2022/03/09 18:53:32;;;;;;;33.00;19.88;;;;;;;9.60;44.89;102150.66;10422995;28;20037;-79
2022/03/09 18:58:33;;;;;;;43.00;21.67;;;;;;;9.53;45.41;102152.31;10426314;28;20128;-80
2022/03/09 19:03:33;;;;;;;40.25;20.20;;;;;;;9.38;45.98;102145.78;10406211;28;20108;-80
2022/03/09 19:08:34;;;;;;;36.20;20.08;;;;;;;9.16;47.37;102147.19;10407119;28;20037;-79
2022/03/09 19:13:34;;;;;;;33.63;20.00;;;;;;;9.00;48.17;102137.09;10391257;28;20029;-79
2022/03/09 19:18:35;;;;;;;40.67;22.23;;;;;;;8.92;48.16;102135.16;10422351;28;20029;-79
2022/03/09 19:23:35;;;;;;;36.92;20.90;;;;;;;8.83;49.02;102139.66;10422831;28;20052;-79
2022/03/09 19:28:36;;;;;;;36.50;20.40;;;;;;;8.77;49.82;102142.97;10421560;28;20088;-79
2022/03/09 19:33:36;;;;;;;41.85;22.45;;;;;;;8.70;49.40;102141.06;10419503;28;20029;-79
2022/03/09 19:38:37;;;;;;;51.65;21.70;;;;;;;8.69;49.72;102158.28;10422510;28;20377;-79
2022/03/09 19:43:39;;;;;;;48.28;21.27;;;;;;;8.58;49.71;102156.63;10425744;28;20025;-79
2022/03/09 19:48:39;;;;;;;42.38;21.63;;;;;;;8.41;50.68;102158.31;10419921;28;20029;-78
2022/03/09 19:53:39;;;;;;;28.17;19.67;;;;;;;8.28;51.76;102155.94;10420306;28;20377;-79
2022/03/09 19:58:40;;;;;;;44.97;23.52;;;;;;;8.19;52.86;102166.81;10402344;28;20478;-79
2022/03/09 20:03:40;;;;;;;35.83;21.80;;;;;;;8.19;51.35;102164.94;10410957;28;20053;-79
2022/03/09 20:08:41;;;;;;;43.47;23.55;;;;;;;8.06;53.55;102162.59;10442646;28;20460;-79
2022/03/09 20:13:41;;;;;;;37.10;22.13;;;;;;;8.04;53.51;102170.03;10445475;28;20044;-79
2022/03/09 20:18:42;;;;;;;50.17;26.45;;;;;;;8.00;53.44;102168.59;10460983;28;20061;-79
2022/03/09 20:23:43;;;;;;;48.45;25.70;;;;;;;8.02;53.13;102173.88;10460465;28;20091;-79
2022/03/09 20:28:43;;;;;;;56.45;24.67;;;;;;;7.94;53.67;102182.69;10460298;28;20033;-80
2022/03/09 20:33:43;;;;;;;44.92;22.42;;;;;;;7.86;53.10;102182.59;10443093;28;20049;-79
2022/03/09 20:38:47;;;;;;;48.65;24.38;;;;;;;7.79;52.71;102197.66;10441857;28;20404;-80
2022/03/09 20:43:47;;;;;;;47.33;24.88;;;;;;;7.70;53.68;102188.59;10460928;28;20036;-79
2022/03/09 20:48:47;;;;;;;49.25;25.65;;;;;;;7.64;52.39;102189.19;10459208;28;20362;-79
2022/03/09 20:53:48;;;;;;;43.42;27.45;;;;;;;7.49;52.66;102190.66;10441534;28;20045;-79
2022/03/09 20:58:48;;;;;;;50.88;24.92;;;;;;;7.37;53.20;102208.81;10458661;28;20052;-79
2022/03/09 21:03:49;;;;;;;53.72;28.25;;;;;;;7.32;53.16;102213.81;10441625;28;20056;-78
2022/03/09 21:08:50;;;;;;;37.60;24.17;;;;;;;7.27;53.91;102213.38;10441898;28;20028;-79
2022/03/09 21:13:51;;;;;;;35.30;21.27;;;;;;;7.19;52.97;102208.72;10462190;28;20040;-79
2022/03/09 21:18:51;;;;;;;53.80;26.60;;;;;;;7.07;53.75;102207.16;10458919;28;20065;-79
2022/03/09 21:23:52;;;;;;;46.50;24.25;;;;;;;6.97;54.66;102220.63;10460480;28;20142;-77
2022/03/09 21:28:52;;;;;;;44.83;24.25;;;;;;;6.92;53.80;102220.19;10424920;28;20488;-77
2022/03/09 21:33:53;;;;;;;44.78;25.95;;;;;;;6.84;53.43;102225.44;10458828;28;20115;-78
2022/03/09 21:38:54;;;;;;;46.00;25.42;;;;;;;6.79;53.43;102235.78;10457835;28;20065;-78
2022/03/09 21:43:54;;;;;;;38.03;21.92;;;;;;;6.77;53.66;102225.16;10457385;28;20060;-78
2022/03/09 21:48:54;;;;;;;47.58;25.42;;;;;;;6.73;54.42;102232.66;10456811;28;20048;-78
2022/03/09 21:53:55;;;;;;;40.88;23.85;;;;;;;6.63;53.84;102242.53;10456032;28;20040;-80
2022/03/09 21:58:55;;;;;;;40.90;24.88;;;;;;;6.47;54.30;102240.38;10455366;28;20033;-78
2022/03/09 22:03:57;;;;;;;48.00;27.42;;;;;;;6.41;53.72;102234.72;10439398;28;20191;-79
2022/03/09 22:08:59;;;;;;;74.47;29.85;;;;;;;6.33;53.72;102237.25;10439542;28;20060;-79
2022/03/09 22:13:59;;;;;;;46.85;23.70;;;;;;;6.27;53.66;102244.03;10439171;28;20037;-79
2022/03/09 22:18:59;;;;;;;36.17;22.85;;;;;;;6.25;54.49;102246.84;10439046;28;20033;-79
2022/03/09 22:24:00;;;;;;;43.70;25.30;;;;;;;6.23;53.91;102251.50;10457225;28;20029;-79
2022/03/09 22:29:01;;;;;;;43.30;24.80;;;;;;;6.26;54.92;102251.25;10439215;28;20112;-78
2022/03/09 22:34:01;;;;;;;48.58;25.58;;;;;;;6.26;54.38;102251.25;10439428;28;20107;-79
2022/03/09 22:39:01;;;;;;;57.80;24.55;;;;;;;6.31;54.05;102258.88;10441049;28;20158;-78
2022/03/09 22:44:02;;;;;;;44.65;24.15;;;;;;;6.32;55.01;102257.94;10455603;28;20100;-78